Time;durP1;ratioP1;P1;durP2;ratioP2;P2;SDS_P1;SDS_P2;PMS_P1;PMS_P2;Temp;Humidity;BMP_temperature;BMP_pressure;BME280_temperature;BME280_humidity;BME280_pressure;Samples;Min_cycle;Max_cycle;Signal;HPM_P1;HPM_P2
2022/10/07 00:01:11;;;;;;;30.17;8.02;;;;;;;8.62;100.00;99732.50;2623079;28;20051;-85
2022/10/07 00:02:27;;;;;;;15.75;6.95;;;;;;;8.48;100.00;99732.47;2626928;28;20051;-84
2022/10/07 00:03:43;;;;;;;19.50;7.25;;;;;;;8.45;100.00;99734.22;2633218;28;20056;-85
2022/10/07 00:04:58;;;;;;;17.35;7.32;;;;;;;8.53;100.00;99729.03;2632484;28;20096;-85
2022/10/07 00:06:19;;;;;;;18.40;7.25;;;;;;;8.32;100.00;99731.56;2632166;28;20453;-85
2022/10/07 00:07:35;;;;;;;34.33;7.15;;;;;;;8.43;100.00;99733.34;2634782;28;20425;-86
2022/10/07 00:08:52;;;;;;;20.08;6.97;;;;;;;8.38;100.00;99733.31;2633044;28;20127;-85
2022/10/07 00:10:08;;;;;;;26.80;6.85;;;;;;;8.48;100.00;99729.88;2632812;28;20050;-85
2022/10/07 00:11:26;;;;;;;16.48;5.85;;;;;;;8.42;100.00;99735.06;2634929;28;20048;-85
2022/10/07 00:12:41;;;;;;;25.10;7.38;;;;;;;8.48;100.00;99735.09;2632722;28;20048;-86
2022/10/07 00:14:00;;;;;;;16.13;6.55;;;;;;;8.54;100.00;99729.03;2632615;28;20135;-85
2022/10/07 00:15:16;;;;;;;21.40;6.47;;;;;;;8.72;100.00;99733.38;2633465;28;20040;-84
2022/10/07 00:16:34;;;;;;;22.38;6.15;;;;;;;8.83;100.00;99729.91;2633262;28;20055;-86
2022/10/07 00:17:50;;;;;;;21.00;5.78;;;;;;;8.83;100.00;99724.69;2633593;28;20047;-85
2022/10/07 00:19:09;;;;;;;24.27;6.32;;;;;;;8.70;100.00;99724.69;2633528;28;20064;-85
2022/10/07 00:20:25;;;;;;;56.53;6.90;;;;;;;8.76;100.00;99721.22;2633582;28;20048;-87
2022/10/07 00:21:41;;;;;;;16.88;6.05;;;;;;;8.64;100.00;99721.19;2633040;28;20048;-86
2022/10/07 00:22:57;;;;;;;46.78;9.23;;;;;;;8.66;100.00;99724.69;2632138;28;20427;-85
2022/10/07 00:24:14;;;;;;;40.10;7.28;;;;;;;8.74;100.00;99720.34;2633199;28;20056;-85
2022/10/07 00:25:30;;;;;;;45.33;7.68;;;;;;;8.80;100.00;99724.69;2632507;28;20052;-85
2022/10/07 00:26:46;;;;;;;41.83;6.95;;;;;;;8.72;100.00;99722.09;2632512;28;20056;-84
2022/10/07 00:28:02;;;;;;;41.58;7.28;;;;;;;8.73;100.00;99718.59;2632975;28;20474;-86
2022/10/07 00:29:18;;;;;;;59.30;7.72;;;;;;;8.79;100.00;99717.72;2633205;28;20043;-85
2022/10/07 00:30:34;;;;;;;66.10;7.20;;;;;;;8.82;100.00;99716.00;2632511;28;20047;-85
2022/10/07 00:31:49;;;;;;;47.47;8.07;;;;;;;8.81;100.00;99718.59;2632322;28;20061;-88
2022/10/07 00:33:05;;;;;;;52.42;7.38;;;;;;;8.80;100.00;99719.47;2632740;28;20047;-85
2022/10/07 00:34:21;;;;;;;28.35;6.10;;;;;;;8.79;100.00;99713.38;2633917;28;20079;-86
2022/10/07 00:35:36;;;;;;;41.05;5.93;;;;;;;8.90;100.00;99722.06;2632937;28;20058;-83
2022/10/07 00:36:52;;;;;;;90.57;8.27;;;;;;;9.02;100.00;99713.38;2633464;28;20070;-84
2022/10/07 00:38:07;;;;;;;50.15;5.80;;;;;;;8.96;100.00;99707.28;2634904;28;20073;-85
2022/10/07 00:39:23;;;;;;;126.03;8.07;;;;;;;9.05;100.00;99712.47;2633003;28;20138;-86
2022/10/07 00:40:40;;;;;;;100.65;7.47;;;;;;;8.98;100.00;99709.00;2633557;28;20395;-86
2022/10/07 00:41:55;;;;;;;78.47;9.07;;;;;;;8.95;100.00;99706.41;2631622;28;20048;-85
2022/10/07 00:43:23;;;;;;;57.40;6.60;;;;;;;8.96;100.00;99702.06;2632151;28;20459;-85
2022/10/07 00:44:42;;;;;;;23.08;4.75;;;;;;;8.86;100.00;99709.91;2632427;28;20055;-84
2022/10/07 00:46:20;;;;;;;66.38;6.35;;;;;;;8.74;100.00;99702.06;2632988;28;20044;-85
2022/10/07 00:47:36;;;;;;;48.13;4.82;;;;;;;8.67;100.00;99698.56;2632418;28;20486;-85
2022/10/07 00:48:53;;;;;;;94.82;8.82;;;;;;;8.78;100.00;99697.72;2623146;28;20118;-85
2022/10/07 00:50:18;;;;;;;57.13;6.68;;;;;;;8.68;100.00;99696.84;2626784;28;20051;-85
2022/10/07 00:51:34;;;;;;;112.22;8.15;;;;;;;8.70;100.00;99701.19;2635026;28;20048;-87
2022/10/07 00:52:58;;;;;;;68.78;7.32;;;;;;;8.66;100.00;99701.19;2634184;28;20383;-85
2022/10/07 00:54:15;;;;;;;86.53;8.32;;;;;;;8.70;100.00;99700.31;2633457;28;20054;-86
2022/10/07 00:55:31;;;;;;;103.10;9.30;;;;;;;8.52;100.00;99699.47;2631992;28;20044;-86
2022/10/07 00:56:49;;;;;;;92.60;7.40;;;;;;;8.44;100.00;99695.94;2634675;28;20847;-89
2022/10/07 00:58:08;;;;;;;78.43;7.80;;;;;;;8.50;100.00;99703.78;2632809;28;20081;-85
2022/10/07 00:59:24;;;;;;;102.72;9.00;;;;;;;8.49;100.00;99699.41;2633039;28;20734;-87
2022/10/07 01:00:40;;;;;;;63.78;7.18;;;;;;;8.55;100.00;99699.47;2632673;28;20075;-85
2022/10/07 01:01:56;;;;;;;53.92;6.50;;;;;;;8.44;100.00;99696.78;2627018;28;20597;-87
2022/10/07 01:03:11;;;;;;;44.90;5.72;;;;;;;8.46;100.00;99696.78;2629170;28;20392;-85
2022/10/07 01:04:27;;;;;;;36.55;5.60;;;;;;;8.41;100.00;99694.19;2633257;28;20506;-86
2022/10/07 01:05:43;;;;;;;51.08;5.80;;;;;;;8.50;100.00;99684.63;2634529;28;20059;-85
2022/10/07 01:06:58;;;;;;;15.02;5.55;;;;;;;8.42;100.00;99687.22;2633607;28;20044;-85
2022/10/07 01:08:14;;;;;;;15.93;5.25;;;;;;;8.30;100.00;99683.72;2631459;28;20047;-84
2022/10/07 01:09:30;;;;;;;26.77;5.32;;;;;;;8.27;100.00;99686.34;2634370;28;20058;-88
2022/10/07 01:11:16;;;;;;;19.63;5.38;;;;;;;8.16;100.00;99681.09;2633598;28;20059;-86
2022/10/07 01:13:02;;;;;;;33.00;6.22;;;;;;;8.26;100.00;99678.50;2633050;28;20538;-84
2022/10/07 01:14:29;;;;;;;26.20;5.97;;;;;;;8.26;100.00;99676.78;2633313;28;20355;-85
2022/10/07 01:15:52;;;;;;;30.67;5.85;;;;;;;8.18;100.00;99673.28;2631192;28;20052;-85
2022/10/07 01:17:14;;;;;;;19.30;6.32;;;;;;;8.32;100.00;99679.38;2633105;28;20055;-87
2022/10/07 01:18:39;;;;;;;37.92;6.90;;;;;;;8.31;100.00;99677.66;2632988;28;20128;-86
2022/10/07 01:20:06;;;;;;;23.40;6.50;;;;;;;8.26;100.00;99674.16;2632979;28;20051;-85
2022/10/07 01:21:43;;;;;;;18.40;6.43;;;;;;;8.17;100.00;99681.97;2632617;28;20047;-85
2022/10/07 01:23:17;;;;;;;12.45;5.88;;;;;;;8.14;100.00;99680.22;2633675;28;20060;-85
2022/10/07 01:24:43;;;;;;;9.55;5.60;;;;;;;8.29;100.00;99674.16;2631426;28;20082;-85
2022/10/07 01:26:14;;;;;;;9.73;5.50;;;;;;;8.05;100.00;99677.63;2631693;28;20503;-85
2022/10/07 01:27:31;;;;;;;12.40;6.32;;;;;;;7.75;100.00;99674.03;2632109;28;20054;-84
2022/10/07 01:29:10;;;;;;;14.85;6.20;;;;;;;7.72;100.00;99669.69;2631043;28;20052;-85
2022/10/07 01:30:30;;;;;;;15.38;6.00;;;;;;;8.03;100.00;99672.38;2631366;28;20075;-84
2022/10/07 01:32:00;;;;;;;10.57;5.85;;;;;;;7.94;100.00;99667.13;2634244;28;20396;-85
2022/10/07 01:33:20;;;;;;;11.90;5.93;;;;;;;7.80;100.00;99669.72;2633215;28;20414;-84
2022/10/07 01:34:37;;;;;;;13.18;6.03;;;;;;;7.74;100.00;99667.06;2632427;28;20452;-85
2022/10/07 01:35:57;;;;;;;10.52;5.85;;;;;;;8.01;100.00;99668.00;2633963;28;20470;-84
2022/10/07 01:37:15;;;;;;;11.88;5.75;;;;;;;7.80;100.00;99666.22;2632937;28;20144;-84
2022/10/07 01:38:33;;;;;;;12.07;6.07;;;;;;;7.46;100.00;99673.06;2632303;28;20071;-85
2022/10/07 01:39:55;;;;;;;9.70;5.35;;;;;;;7.46;100.00;99662.63;2631926;28;20063;-84
2022/10/07 01:41:14;;;;;;;16.02;5.47;;;;;;;7.42;100.00;99666.09;2632677;28;20241;-85
2022/10/07 01:42:31;;;;;;;10.68;4.97;;;;;;;7.80;100.00;99668.84;2632220;28;20959;-85
2022/10/07 01:43:51;;;;;;;14.32;6.70;;;;;;;7.81;100.00;99657.53;2630830;28;20081;-86
2022/10/07 01:45:10;;;;;;;9.77;4.90;;;;;;;7.83;100.00;99651.47;2631020;28;20048;-85
2022/10/07 01:46:26;;;;;;;9.05;5.25;;;;;;;7.47;100.00;99648.75;2633834;28;20560;-86
2022/10/07 01:47:42;;;;;;;10.95;5.68;;;;;;;7.43;100.00;99654.81;2632274;28;20533;-88
2022/10/07 01:48:58;;;;;;;9.10;4.88;;;;;;;7.85;100.00;99652.34;2632728;28;20521;-85
2022/10/07 01:50:15;;;;;;;9.27;5.38;;;;;;;8.05;100.00;99649.78;2632202;28;20506;-84
2022/10/07 01:51:35;;;;;;;10.45;5.05;;;;;;;8.17;100.00;99650.66;2634441;28;20121;-85
2022/10/07 01:53:15;;;;;;;9.25;4.97;;;;;;;8.29;100.00;99642.84;2633324;28;20048;-85
2022/10/07 01:54:50;;;;;;;8.35;4.68;;;;;;;8.33;100.00;99651.56;2630988;28;20052;-85
2022/10/07 01:56:39;;;;;;;8.82;4.82;;;;;;;8.33;100.00;99644.59;2633098;28;20043;-84
2022/10/07 01:58:17;;;;;;;9.80;4.50;;;;;;;8.12;100.00;99632.41;2631905;28;20075;-85
2022/10/07 01:59:55;;;;;;;7.32;4.15;;;;;;;7.95;100.00;99628.91;2631193;28;20158;-84
2022/10/07 02:01:21;;;;;;;8.82;4.57;;;;;;;7.51;100.00;99633.13;2631564;28;20482;-85
2022/10/07 02:02:57;;;;;;;9.57;4.45;;;;;;;7.29;100.00;99628.69;2631152;28;20058;-83
2022/10/07 02:04:40;;;;;;;11.00;4.10;;;;;;;7.17;100.00;99624.28;2632300;28;20067;-84
2022/10/07 02:06:33;;;;;;;11.07;4.82;;;;;;;7.13;100.00;99630.38;2630725;28;20047;-86
2022/10/07 02:08:13;;;;;;;8.68;4.18;;;;;;;7.09;100.00;99628.56;2632626;28;20051;-85
2022/10/07 02:09:37;;;;;;;10.40;4.43;;;;;;;7.11;100.00;99623.41;2632177;28;20474;-83
2022/10/07 02:11:10;;;;;;;9.52;5.20;;;;;;;7.25;100.00;99620.84;2631710;28;20058;-89
2022/10/07 02:12:58;;;;;;;10.10;4.93;;;;;;;7.52;100.00;99603.56;2632982;28;20104;-85
2022/10/07 02:14:20;;;;;;;10.05;4.70;;;;;;;7.30;100.00;99611.34;2632461;28;20802;-85
2022/10/07 02:15:43;;;;;;;11.45;5.40;;;;;;;7.23;100.00;99617.38;2633810;28;20044;-84
2022/10/07 02:17:09;;;;;;;8.13;5.50;;;;;;;7.24;100.00;99606.97;2626815;28;20044;-84
2022/10/07 02:18:28;;;;;;;8.82;5.07;;;;;;;7.33;100.00;99608.72;2628566;28;21037;-86
2022/10/07 02:19:48;;;;;;;12.80;5.00;;;;;;;7.29;100.00;99613.06;2630810;28;20044;-85
2022/10/07 02:21:06;;;;;;;10.48;5.22;;;;;;;7.30;100.00;99606.97;2632909;28;20106;-84
2022/10/07 02:22:27;;;;;;;18.33;4.97;;;;;;;7.55;100.00;99609.69;2632970;28;20089;-85
2022/10/07 02:23:45;;;;;;;10.90;4.80;;;;;;;7.71;100.00;99604.50;2630497;28;20157;-85
2022/10/07 02:25:01;;;;;;;15.60;4.97;;;;;;;7.80;100.00;99604.53;2631499;28;20128;-87
2022/10/07 02:26:20;;;;;;;10.93;5.10;;;;;;;7.71;100.00;99602.78;2632730;28;20048;-84
2022/10/07 02:27:37;;;;;;;8.70;5.10;;;;;;;7.71;100.00;99600.19;2632398;28;20075;-86
2022/10/07 02:28:55;;;;;;;9.93;5.13;;;;;;;7.83;100.00;99598.47;2630614;28;20172;-85
2022/10/07 02:30:15;;;;;;;12.93;4.97;;;;;;;7.83;100.00;99599.31;2633116;28;20422;-86
2022/10/07 02:31:33;;;;;;;10.60;6.05;;;;;;;7.92;100.00;99590.63;2633460;28;20044;-86
2022/10/07 02:32:59;;;;;;;12.05;5.47;;;;;;;8.01;100.00;99595.88;2633419;28;20071;-86
2022/10/07 02:34:18;;;;;;;10.73;4.90;;;;;;;7.98;100.00;99595.00;2631233;28;20048;-85
2022/10/07 02:35:44;;;;;;;9.25;4.47;;;;;;;7.59;100.00;99594.94;2632603;28;20051;-85
2022/10/07 02:37:05;;;;;;;10.48;4.53;;;;;;;7.49;100.00;99592.28;2632790;28;20075;-88
2022/10/07 02:38:21;;;;;;;8.05;4.70;;;;;;;7.78;100.00;99591.47;2633640;28;20047;-86
2022/10/07 02:39:37;;;;;;;15.73;5.07;;;;;;;7.47;100.00;99591.41;2633420;28;20518;-85
2022/10/07 02:41:05;;;;;;;10.77;4.60;;;;;;;7.55;100.00;99587.97;2633001;28;20080;-86
2022/10/07 02:42:26;;;;;;;9.75;4.97;;;;;;;7.83;100.00;99588.91;2631518;28;20051;-89
2022/10/07 02:43:55;;;;;;;137.02;11.27;;;;;;;8.01;100.00;99590.66;2621900;28;20426;-86
2022/10/07 02:45:17;;;;;;;87.85;7.18;;;;;;;8.06;100.00;99586.31;2628592;28;20079;-86
2022/10/07 02:46:41;;;;;;;129.82;12.18;;;;;;;8.09;100.00;99589.78;2631829;28;20059;-86
2022/10/07 02:48:03;;;;;;;114.88;9.63;;;;;;;8.25;100.00;99586.34;2630712;28;20566;-86
2022/10/07 02:49:22;;;;;;;56.70;6.03;;;;;;;8.20;100.00;99586.31;2632076;28;20044;-86
2022/10/07 02:50:41;;;;;;;16.77;5.20;;;;;;;8.05;100.00;99589.78;2633598;28;20069;-86
2022/10/07 02:52:00;;;;;;;36.10;5.20;;;;;;;8.14;100.00;99583.69;2632699;28;20355;-88
2022/10/07 02:53:18;;;;;;;32.05;4.78;;;;;;;8.14;100.00;99586.31;2633235;28;20048;-86
2022/10/07 02:54:41;;;;;;;7.55;4.32;;;;;;;8.05;100.00;99581.97;2630999;28;20046;-85
2022/10/07 02:56:00;;;;;;;10.20;4.82;;;;;;;8.10;100.00;99587.19;2633116;28;20052;-88
2022/10/07 02:57:18;;;;;;;11.18;4.90;;;;;;;8.04;100.00;99582.84;2631430;28;20441;-85
2022/10/07 02:58:35;;;;;;;7.45;4.90;;;;;;;7.61;100.00;99578.44;2632270;28;20505;-85
2022/10/07 02:59:52;;;;;;;13.20;4.65;;;;;;;7.49;100.00;99579.25;2631591;28;20109;-85
2022/10/07 03:01:09;;;;;;;14.95;5.30;;;;;;;7.78;100.00;99582.81;2630912;28;20054;-87
2022/10/07 03:02:43;;;;;;;27.77;6.32;;;;;;;7.90;100.00;99579.34;2631273;28;20048;-85
2022/10/07 03:04:02;;;;;;;17.13;4.93;;;;;;;8.00;100.00;99580.22;2631916;28;20036;-84
2022/10/07 03:05:42;;;;;;;8.38;5.13;;;;;;;7.96;100.00;99581.97;2630712;28;20082;-86
2022/10/07 03:07:01;;;;;;;8.95;4.75;;;;;;;7.85;100.00;99578.47;2619063;28;20056;-86
2022/10/07 03:08:20;;;;;;;15.52;4.80;;;;;;;7.46;100.00;99570.56;2628836;28;20043;-85
2022/10/07 03:09:35;;;;;;;10.48;4.70;;;;;;;7.46;100.00;99576.66;2630558;28;20048;-85
2022/10/07 03:10:51;;;;;;;11.43;4.93;;;;;;;7.45;100.00;99574.03;2631558;28;20050;-88
2022/10/07 03:12:07;;;;;;;10.57;4.72;;;;;;;7.66;100.00;99569.75;2630440;28;20036;-86
2022/10/07 03:13:23;;;;;;;11.27;4.53;;;;;;;7.33;100.00;99573.16;2619271;28;20063;-86
2022/10/07 03:14:39;;;;;;;14.10;5.18;;;;;;;7.40;100.00;99567.94;2625069;28;20048;-87
2022/10/07 03:15:55;;;;;;;8.48;4.90;;;;;;;7.71;100.00;99568.91;2632303;28;20055;-85
2022/10/07 03:17:10;;;;;;;10.85;4.68;;;;;;;7.49;100.00;99567.97;2630445;28;20105;-86
2022/10/07 03:18:27;;;;;;;9.48;4.45;;;;;;;7.06;100.00;99564.34;2630193;28;20083;-85
2022/10/07 03:19:42;;;;;;;7.80;4.63;;;;;;;7.08;100.00;99566.94;2630952;28;20524;-85
2022/10/07 03:21:01;;;;;;;10.32;4.50;;;;;;;7.02;100.00;99565.19;2631793;28;20101;-85
2022/10/07 03:22:16;;;;;;;8.15;4.82;;;;;;;7.11;100.00;99559.13;2629997;28;20036;-87
2022/10/07 03:23:32;;;;;;;11.00;5.15;;;;;;;7.42;100.00;99558.38;2631607;28;20047;-87
2022/10/07 03:24:48;;;;;;;8.00;4.40;;;;;;;7.61;100.00;99561.91;2632016;28;20058;-86
2022/10/07 03:26:03;;;;;;;11.85;4.95;;;;;;;7.55;100.00;99554.09;2631198;28;20482;-88
2022/10/07 03:27:19;;;;;;;13.93;4.35;;;;;;;7.33;100.00;99564.44;2631828;28;20071;-85
2022/10/07 03:28:36;;;;;;;9.48;4.70;;;;;;;7.25;100.00;99558.31;2631212;28;20101;-86
2022/10/07 03:29:53;;;;;;;7.82;4.40;;;;;;;7.25;100.00;99561.81;2633489;28;20625;-85
2022/10/07 03:31:10;;;;;;;7.72;4.68;;;;;;;7.46;100.00;99554.91;2634886;28;20374;-87
2022/10/07 03:32:26;;;;;;;19.98;5.47;;;;;;;7.37;100.00;99563.56;2635942;28;20048;-85
2022/10/07 03:33:42;;;;;;;14.20;5.10;;;;;;;7.44;100.00;99562.75;2635949;28;20058;-86
2022/10/07 03:34:58;;;;;;;13.02;5.05;;;;;;;7.27;100.00;99556.63;2635050;28;20043;-86
2022/10/07 03:36:13;;;;;;;12.82;5.20;;;;;;;7.26;100.00;99563.56;2635147;28;20478;-85
2022/10/07 03:37:29;;;;;;;14.98;4.97;;;;;;;7.32;100.00;99560.09;2635809;28;20058;-86
2022/10/07 03:38:44;;;;;;;11.93;4.88;;;;;;;7.27;100.00;99557.47;2635703;28;20075;-86
2022/10/07 03:40:00;;;;;;;10.35;5.13;;;;;;;7.38;100.00;99557.50;2637391;28;20574;-86
2022/10/07 03:41:17;;;;;;;13.38;5.30;;;;;;;7.46;100.00;99560.13;2635774;28;20043;-85
2022/10/07 03:42:33;;;;;;;16.50;4.60;;;;;;;7.53;100.00;99561.00;2634774;28;20048;-86
2022/10/07 03:43:49;;;;;;;17.45;4.68;;;;;;;7.69;100.00;99554.09;2635000;28;20054;-85
2022/10/07 03:45:05;;;;;;;10.50;4.38;;;;;;;7.72;100.00;99555.00;2634314;28;20047;-88
2022/10/07 03:46:21;;;;;;;84.95;7.65;;;;;;;7.76;100.00;99559.34;2634172;28;20055;-86
2022/10/07 03:47:37;;;;;;;94.85;8.55;;;;;;;7.74;100.00;99555.84;2634043;28;20046;-90
2022/10/07 03:48:53;;;;;;;28.08;5.25;;;;;;;7.56;100.00;99548.88;2635058;28;20094;-85
2022/10/07 03:50:08;;;;;;;12.18;4.75;;;;;;;7.37;100.00;99552.31;2635934;28;20047;-84
2022/10/07 03:51:24;;;;;;;14.25;5.50;;;;;;;7.39;100.00;99550.56;2635534;28;20395;-84
2022/10/07 03:52:39;;;;;;;11.68;4.88;;;;;;;7.29;100.00;99549.69;2636171;28;20059;-84
2022/10/07 03:53:57;;;;;;;9.05;4.78;;;;;;;7.24;100.00;99546.16;2634649;28;20051;-84
2022/10/07 03:55:12;;;;;;;9.57;4.85;;;;;;;7.15;100.00;99553.09;2635994;28;20044;-85
2022/10/07 03:56:28;;;;;;;11.88;5.10;;;;;;;7.08;100.00;99540.91;2636710;28;20050;-85
2022/10/07 03:57:49;;;;;;;17.25;5.15;;;;;;;7.12;100.00;99547.00;2635073;28;20444;-84
2022/10/07 03:59:05;;;;;;;12.45;5.55;;;;;;;7.41;100.00;99541.03;2633914;28;20040;-86
2022/10/07 04:00:23;;;;;;;31.77;5.55;;;;;;;7.56;100.00;99545.41;2635621;28;20055;-87
2022/10/07 04:01:39;;;;;;;30.83;5.18;;;;;;;7.57;100.00;99547.16;2635528;28;20531;-87
2022/10/07 04:02:54;;;;;;;17.45;4.65;;;;;;;7.21;100.00;99545.28;2637092;28;20518;-86
2022/10/07 04:04:10;;;;;;;8.98;4.80;;;;;;;7.58;100.00;99541.91;2636211;28;20425;-87
2022/10/07 04:05:27;;;;;;;9.80;4.68;;;;;;;7.74;100.00;99536.72;2634734;28;20051;-85
2022/10/07 04:06:43;;;;;;;9.18;5.07;;;;;;;7.82;100.00;99540.22;2634307;28;20052;-86
2022/10/07 04:07:58;;;;;;;9.32;4.43;;;;;;;7.89;100.00;99536.78;2633538;28;20051;-85
2022/10/07 04:09:14;;;;;;;15.75;5.22;;;;;;;7.81;100.00;99541.09;2635175;28;20555;-86
2022/10/07 04:10:31;;;;;;;22.63;4.97;;;;;;;7.60;100.00;99539.31;2635113;28;20054;-88
2022/10/07 04:11:46;;;;;;;16.80;3.67;;;;;;;7.32;100.00;99541.88;2633013;28;20076;-88
2022/10/07 04:13:01;;;;;;;63.95;6.35;;;;;;;7.31;100.00;99543.59;2633331;28;20056;-87
2022/10/07 04:14:17;;;;;;;57.97;5.90;;;;;;;7.43;100.00;99534.94;2634477;28;20097;-86
2022/10/07 04:15:34;;;;;;;6.35;3.60;;;;;;;7.47;100.00;99533.19;2634128;28;20052;-85
2022/10/07 04:16:50;;;;;;;8.40;4.20;;;;;;;7.56;100.00;99532.38;2636588;28;20401;-86
2022/10/07 04:18:05;;;;;;;21.70;4.47;;;;;;;7.55;100.00;99535.84;2622348;28;20049;-84
2022/10/07 04:19:21;;;;;;;15.35;4.45;;;;;;;7.41;100.00;99531.47;2627088;28;20429;-87
2022/10/07 04:20:37;;;;;;;19.23;4.32;;;;;;;7.42;100.00;99533.22;2636067;28;20544;-85
2022/10/07 04:21:52;;;;;;;20.00;5.10;;;;;;;7.42;100.00;99533.22;2635409;28;20058;-86
2022/10/07 04:23:08;;;;;;;23.75;4.22;;;;;;;7.37;100.00;99534.91;2634107;28;20384;-86
2022/10/07 04:24:24;;;;;;;9.95;3.70;;;;;;;7.43;100.00;99527.13;2635625;28;20055;-84
2022/10/07 04:25:42;;;;;;;23.27;3.47;;;;;;;7.46;100.00;99536.69;2633494;28;20139;-88
2022/10/07 04:26:58;;;;;;;34.05;5.20;;;;;;;7.56;100.00;99532.38;2635034;28;20040;-85
2022/10/07 04:28:31;;;;;;;59.22;6.20;;;;;;;7.55;100.00;99535.84;2637143;28;20163;-85
2022/10/07 04:29:47;;;;;;;59.80;4.88;;;;;;;7.37;100.00;99526.25;2633580;28;20056;-85
2022/10/07 04:31:04;;;;;;;43.30;4.28;;;;;;;7.35;100.00;99523.63;2634375;28;20036;-84
2022/10/07 04:32:21;;;;;;;67.45;4.72;;;;;;;7.25;100.00;99527.06;2634567;28;20046;-84
2022/10/07 04:33:39;;;;;;;80.22;7.47;;;;;;;7.16;100.00;99526.19;2634935;28;20055;-85
2022/10/07 04:34:55;;;;;;;53.40;5.72;;;;;;;7.06;100.00;99529.63;2634654;28;20047;-84
2022/10/07 04:36:11;;;;;;;31.48;4.63;;;;;;;7.00;100.00;99530.47;2633989;28;20048;-84
2022/10/07 04:37:27;;;;;;;79.78;6.50;;;;;;;7.23;100.00;99531.41;2633851;28;20510;-86
2022/10/07 04:38:44;;;;;;;78.85;7.15;;;;;;;7.15;100.00;99524.44;2635726;28;20040;-84
2022/10/07 04:39:59;;;;;;;24.27;4.55;;;;;;;7.01;100.00;99520.94;2634362;28;20075;-84
2022/10/07 04:41:15;;;;;;;35.65;5.95;;;;;;;7.11;100.00;99525.28;2633370;28;20431;-85
2022/10/07 04:44:04;;;;;;;64.70;6.05;;;;;;;7.18;100.00;99520.97;2632224;28;20047;-84
2022/10/07 04:45:20;;;;;;;95.03;8.00;;;;;;;7.27;100.00;99507.97;2633323;28;20060;-83
2022/10/07 04:46:36;;;;;;;137.98;8.45;;;;;;;7.35;100.00;99510.59;2633318;28;20044;-84
2022/10/07 04:47:51;;;;;;;189.90;11.38;;;;;;;7.17;100.00;99520.13;2631798;28;20124;-84
2022/10/07 04:49:08;;;;;;;194.20;12.15;;;;;;;7.18;100.00;99514.03;2632185;28;20396;-84
2022/10/07 04:50:25;;;;;;;142.95;10.23;;;;;;;7.11;100.00;99517.47;2633083;28;20043;-83
2022/10/07 04:51:40;;;;;;;230.30;13.63;;;;;;;7.15;100.00;99518.34;2632228;28;20478;-85
2022/10/07 04:52:56;;;;;;;59.95;6.25;;;;;;;7.04;100.00;99516.56;2632730;28;20368;-85
2022/10/07 04:54:12;;;;;;;296.52;17.00;;;;;;;7.25;100.00;99517.53;2628992;28;20482;-84
2022/10/07 04:55:28;;;;;;;42.38;5.93;;;;;;;7.16;100.00;99515.78;2629601;28;20058;-83
2022/10/07 04:56:43;;;;;;;300.40;14.70;;;;;;;7.29;100.00;99515.81;2627801;28;20040;-83
2022/10/07 04:57:59;;;;;;;252.02;15.35;;;;;;;7.34;100.00;99522.78;2626813;28;20124;-83
2022/10/07 04:59:14;;;;;;;215.15;13.52;;;;;;;7.35;100.00;99519.31;2627091;28;20047;-83
2022/10/07 05:00:30;;;;;;;177.32;11.88;;;;;;;7.25;100.00;99517.53;2627601;28;20498;-84
2022/10/07 05:01:47;;;;;;;126.50;9.88;;;;;;;7.15;100.00;99519.25;2626719;28;20036;-83
2022/10/07 05:03:02;;;;;;;159.68;8.55;;;;;;;7.29;100.00;99515.81;2626609;28;20410;-83
2022/10/07 05:04:18;;;;;;;134.18;9.65;;;;;;;7.39;100.00;99521.91;2630950;28;20048;-83
2022/10/07 05:05:34;;;;;;;112.95;7.35;;;;;;;7.38;100.00;99518.41;2628749;28;20083;-83
2022/10/07 05:06:49;;;;;;;144.32;9.15;;;;;;;7.35;100.00;99515.81;2628194;28;20040;-83
2022/10/07 05:08:06;;;;;;;46.40;5.05;;;;;;;7.35;100.00;99515.81;2606813;28;20041;-83
2022/10/07 05:09:21;;;;;;;67.28;6.38;;;;;;;7.41;100.00;99518.44;2614768;28;20481;-82
2022/10/07 05:10:41;;;;;;;30.92;5.35;;;;;;;7.38;100.00;99518.41;2629465;28;20050;-85
2022/10/07 05:11:56;;;;;;;91.22;7.38;;;;;;;7.34;100.00;99516.69;2627548;28;20494;-85
2022/10/07 05:13:15;;;;;;;87.55;6.70;;;;;;;7.38;100.00;99521.03;2628312;28;20047;-84
2022/10/07 05:14:32;;;;;;;114.30;7.30;;;;;;;7.43;100.00;99515.84;2627431;28;20059;-82
2022/10/07 05:15:49;;;;;;;71.85;6.82;;;;;;;7.35;100.00;99519.31;2626914;28;20055;-85
2022/10/07 05:17:05;;;;;;;49.85;4.97;;;;;;;7.37;100.00;99510.63;2630888;28;20075;-85
2022/10/07 05:18:26;;;;;;;66.93;5.53;;;;;;;7.30;100.00;99517.56;2630396;28;20102;-84
2022/10/07 05:19:41;;;;;;;81.10;6.55;;;;;;;7.27;100.00;99510.59;2627621;28;20723;-84
2022/10/07 05:20:57;;;;;;;43.20;5.32;;;;;;;7.39;100.00;99509.75;2627939;28;20048;-84
2022/10/07 05:22:12;;;;;;;38.47;5.50;;;;;;;7.46;100.00;99516.72;2628183;28;20537;-85
2022/10/07 05:23:30;;;;;;;34.45;5.25;;;;;;;7.35;100.00;99513.22;2626019;28;20044;-84
2022/10/07 05:24:48;;;;;;;85.38;7.78;;;;;;;7.49;100.00;99505.44;2628356;28;20048;-85
2022/10/07 05:26:06;;;;;;;102.50;8.48;;;;;;;7.47;100.00;99513.25;2626975;28;20048;-83
2022/10/07 05:27:22;;;;;;;100.07;7.55;;;;;;;7.44;100.00;99502.81;2625704;28;20544;-84
2022/10/07 05:28:38;;;;;;;90.13;10.23;;;;;;;7.39;100.00;99506.28;2625997;28;20043;-84
2022/10/07 05:29:54;;;;;;;60.22;5.53;;;;;;;7.42;100.00;99506.28;2628285;28;20050;-83
2022/10/07 05:31:13;;;;;;;152.13;9.45;;;;;;;7.52;100.00;99509.75;2628274;28;20059;-84
2022/10/07 05:32:28;;;;;;;88.45;7.10;;;;;;;7.47;100.00;99507.16;2628465;28;20043;-84
2022/10/07 05:33:44;;;;;;;140.27;10.60;;;;;;;7.60;100.00;99508.06;2627623;28;20048;-83
2022/10/07 05:35:00;;;;;;;121.63;9.07;;;;;;;7.65;100.00;99503.69;2631235;28;20085;-84
2022/10/07 05:36:16;;;;;;;138.65;8.93;;;;;;;7.65;100.00;99506.31;2628739;28;20597;-84
2022/10/07 05:37:35;;;;;;;80.47;8.25;;;;;;;7.65;100.00;99502.84;2629155;28;20054;-84
2022/10/07 05:38:56;;;;;;;96.78;7.65;;;;;;;7.49;100.00;99503.69;2628373;28;20422;-84
2022/10/07 05:40:12;;;;;;;44.03;5.68;;;;;;;7.49;100.00;99502.84;2627543;28;20040;-84
2022/10/07 05:41:28;;;;;;;72.78;8.00;;;;;;;7.70;100.00;99502.00;2627666;28;20572;-84
2022/10/07 05:42:43;;;;;;;122.32;8.35;;;;;;;7.74;100.00;99490.69;2615975;28;20065;-84
2022/10/07 05:44:00;;;;;;;100.32;7.57;;;;;;;7.72;100.00;99491.53;2622339;28;20047;-84
2022/10/07 05:45:15;;;;;;;114.70;7.43;;;;;;;7.69;100.00;99495.03;2629890;28;20090;-85
2022/10/07 05:46:31;;;;;;;28.27;4.30;;;;;;;7.82;100.00;99495.03;2631764;28;20083;-84
2022/10/07 05:47:46;;;;;;;59.17;5.18;;;;;;;7.73;100.00;99488.94;2626573;28;20568;-84
2022/10/07 05:49:02;;;;;;;106.63;9.13;;;;;;;7.81;100.00;99490.69;2627044;28;20054;-84
2022/10/07 05:50:17;;;;;;;90.28;7.20;;;;;;;7.88;100.00;99492.44;2628283;28;20043;-84
2022/10/07 05:51:33;;;;;;;50.33;5.85;;;;;;;7.82;100.00;99482.88;2632955;28;20055;-85
2022/10/07 05:52:50;;;;;;;122.95;11.05;;;;;;;7.90;100.00;99491.56;2628163;28;20055;-84
2022/10/07 05:54:07;;;;;;;63.10;6.15;;;;;;;7.95;100.00;99491.53;2628361;28;20051;-85
2022/10/07 05:55:22;;;;;;;74.47;7.10;;;;;;;7.42;100.00;99488.03;2629918;28;20044;-84
2022/10/07 05:56:38;;;;;;;64.03;6.60;;;;;;;7.37;100.00;99488.03;2627949;28;20536;-84
2022/10/07 05:57:54;;;;;;;74.28;9.05;;;;;;;7.70;100.00;99488.97;2627707;28;20383;-84
2022/10/07 05:59:10;;;;;;;67.68;6.68;;;;;;;7.41;100.00;99489.78;2628026;28;20094;-82
2022/10/07 06:00:27;;;;;;;105.43;8.48;;;;;;;7.45;100.00;99483.72;2627188;28;20059;-83
2022/10/07 06:01:42;;;;;;;107.13;9.60;;;;;;;7.71;100.00;99485.47;2632832;28;20048;-82
2022/10/07 06:03:01;;;;;;;80.05;7.13;;;;;;;7.56;100.00;99485.47;2632595;28;20040;-83
2022/10/07 06:04:18;;;;;;;74.32;7.13;;;;;;;7.54;100.00;99481.97;2631835;28;20119;-83
2022/10/07 06:05:33;;;;;;;70.15;6.50;;;;;;;7.33;100.00;99486.28;2631647;28;20052;-83
2022/10/07 06:06:49;;;;;;;110.53;7.90;;;;;;;7.43;100.00;99480.25;2630617;28;20052;-83
2022/10/07 06:08:04;;;;;;;63.92;5.93;;;;;;;7.42;100.00;99481.09;2629142;28;20063;-86
2022/10/07 06:14:11;;;;;;;47.92;6.40;;;;;;;7.77;100.00;99482.00;2630636;28;20059;-82